Flight Track Log - Related Links

Times and Time Zones

All times are in EDT time to prevent confusion due to time zone crossing. See the DAL1979 flight status page for this flight to view local times or setup timezone preferences in your user account.


Time Position Orientation Groundspeed Altitude Reporting Facility
EDT Latitude Longitude Course Direction KTS MPH feet Rate Location/Type
Sun 11:42:27 AM 44.8920 -93.2490 303° West 173 199 1,900  Level FlightAware ADS-B
Sun 11:42:37 AM 44.8940 -93.2610 283° West 185 213 2,200 1,467 Climbing FlightAware ADS-B
Sun 11:43:12 AM 44.8870 -93.3100 259° West 231 266 3,000 1,560 Climbing FlightAware ADS-B
Sun 11:43:27 AM 44.8840 -93.3320 259° West 245 282 3,500 2,571 Climbing FlightAware ADS-B
Sun 11:43:47 AM 44.8740 -93.3610 244° Southwest 255 293 4,500 2,400 Climbing FlightAware ADS-B
Sun 11:44:17 AM 44.8430 -93.3810 205° Southwest 285 328 5,500 2,291 Climbing FlightAware ADS-B
Sun 11:44:42 AM 44.8090 -93.3620 158° South 295 339 6,600 2,550 Climbing FlightAware ADS-B
Sun 11:44:57 AM 44.7970 -93.3410 129° Southeast 290 334 7,200 2,550 Climbing FlightAware ADS-B
Sun 11:45:22 AM 44.7790 -93.2980 121° Southeast 299 344 8,300 2,509 Climbing FlightAware ADS-B
Sun 11:45:52 AM 44.7550 -93.2470 124° Southeast 312 359 9,500 1,971 Climbing FlightAware ADS-B
Sun 11:46:32 AM 44.7200 -93.1780 126° Southeast 346 398 10,600 1,341 Climbing FlightAware ADS-B
Sun 11:47:17 AM 44.6750 -93.0920 126° Southeast 390 449 11,400 1,482 Climbing FlightAware ADS-B
Sun 11:47:57 AM 44.6320 -93.0100 126° Southeast 407 468 12,700 2,118 Climbing FlightAware ADS-B
Sun 11:48:42 AM 44.5800 -92.9090 126° Southeast 418 481 14,400 2,188 Climbing FlightAware ADS-B
Sun 11:49:22 AM 44.5340 -92.8210 126° Southeast 428 493 15,800 2,025 Climbing FlightAware ADS-B
Sun 11:50:02 AM 44.4890 -92.7340 126° Southeast 435 501 17,100 1,976 Climbing FlightAware ADS-B
Sun 11:50:47 AM 44.4330 -92.6280 126° Southeast 444 511 18,600 1,835 Climbing FlightAware ADS-B
Sun 11:51:27 AM 44.3830 -92.5330 126° Southeast 454 522 19,700 1,694 Climbing FlightAware ADS-B
Sun 11:52:12 AM 44.3300 -92.4300 126° Southeast 458 527 21,000 1,624 Climbing FlightAware ADS-B
Sun 11:52:52 AM 44.2850 -92.3280 122° Southeast 465 535 22,000 1,500 Climbing FlightAware ADS-B
Sun 11:53:32 AM 44.2400 -92.2240 121° Southeast 472 543 23,000 1,412 Climbing FlightAware ADS-B
Sun 11:54:17 AM 44.1880 -92.1040 121° Southeast 481 554 24,000 1,341 Climbing FlightAware ADS-B
Sun 11:54:57 AM 44.1410 -91.9980 122° Southeast 489 563 24,900 1,275 Climbing FlightAware ADS-B
Sun 11:55:37 AM 44.0930 -91.8880 121° Southeast 495 570 25,700 1,129 Climbing FlightAware ADS-B
Sun 11:56:22 AM 44.0390 -91.7680 122° Southeast 502 578 26,500 933 Climbing FlightAware ADS-B
Sun 11:57:07 AM 43.9830 -91.6400 121° Southeast 513 590 27,100 918 Climbing FlightAware ADS-B
Sun 11:57:47 AM 43.9330 -91.5300 122° Southeast 520 598 27,800 1,125 Climbing FlightAware ADS-B
Sun 11:58:27 AM 43.8730 -91.4230 128° Southeast 532 612 28,600 1,125 Climbing FlightAware ADS-B
Sun 11:59:07 AM 43.8040 -91.3260 135° Southeast 535 616 29,300 988 Climbing FlightAware ADS-B
Sun 11:59:52 AM 43.7260 -91.2170 135° Southeast 540 621 30,000 1,129 Climbing FlightAware ADS-B
Sun 12:00:32 PM 43.6560 -91.1200 135° Southeast 538 619 30,900 1,271 Climbing FlightAware ADS-B
Sun 12:01:17 PM 43.5750 -91.0080 135° Southeast 535 616 31,800 1,129 Climbing FlightAware ADS-B
Sun 12:01:57 PM 43.5040 -90.9110 135° Southeast 533 613 32,500 847 Climbing FlightAware ADS-B
Sun 12:02:42 PM 43.4270 -90.8060 135° Southeast 532 612 33,000 353 Climbing FlightAware ADS-B
Sun 12:03:22 PM 43.3600 -90.7130 135° Southeast 528 608 33,000  Level FlightAware ADS-B
Sun 12:04:07 PM 43.2800 -90.6050 135° Southeast 524 603 33,000  Level FlightAware ADS-B
Sun 12:04:47 PM 43.2090 -90.5080 135° Southeast 523 602 33,000  Level FlightAware ADS-B
Sun 12:05:27 PM 43.1430 -90.4190 135° Southeast 523 602 33,000  Level FlightAware ADS-B
Sun 12:06:12 PM 43.0690 -90.3180 135° Southeast 523 602 33,000  Level FlightAware ADS-B
Sun 12:06:52 PM 42.9960 -90.2210 136° Southeast 524 603 33,000  Level FlightAware ADS-B
Sun 12:07:32 PM 42.9300 -90.1320 135° Southeast 524 603 33,000  Level FlightAware ADS-B
Sun 12:08:17 PM 42.8510 -90.0260 135° Southeast 525 604 33,000  Level FlightAware ADS-B
Sun 12:08:57 PM 42.7710 -89.9500 145° Southeast 529 609 33,000  Level FlightAware ADS-B
Sun 12:09:42 PM 42.6670 -89.9170 167° South 526 605 33,000  Level FlightAware ADS-B
Sun 12:10:22 PM 42.5710 -89.8960 171° South 526 605 33,000  Level FlightAware ADS-B
Sun 12:11:02 PM 42.4710 -89.8740 171° South 526 605 33,000  Level FlightAware ADS-B
Sun 12:11:47 PM 42.3600 -89.8510 171° South 525 604 33,000  Level FlightAware ADS-B
Sun 12:12:27 PM 42.2660 -89.8310 171° South 525 604 33,000  Level FlightAware ADS-B
Sun 12:13:12 PM 42.1550 -89.8070 171° South 524 603 33,000  Level FlightAware ADS-B
Sun 12:13:52 PM 42.0590 -89.7860 171° South 524 603 33,000  Level FlightAware ADS-B
Sun 12:14:32 PM 41.9630 -89.7650 171° South 523 602 33,000  Level FlightAware ADS-B
Sun 12:15:17 PM 41.8600 -89.7430 171° South 522 601 33,000  Level FlightAware ADS-B
Sun 12:16:02 PM 41.7480 -89.7190 171° South 520 598 33,000  Level FlightAware ADS-B
Sun 12:16:42 PM 41.6550 -89.6990 171° South 520 598 33,000  Level FlightAware ADS-B
Sun 12:17:22 PM 41.5610 -89.6790 171° South 519 597 33,000  Level FlightAware ADS-B
Sun 12:18:07 PM 41.4540 -89.6570 171° South 518 596 33,000  Level FlightAware ADS-B
Sun 12:18:47 PM 41.3580 -89.6370 171° South 518 596 33,000  Level FlightAware ADS-B
Sun 12:19:27 PM 41.2660 -89.6170 171° South 517 595 33,000  Level FlightAware ADS-B
Sun 12:20:12 PM 41.1570 -89.5870 168° South 518 596 33,000  Level FlightAware ADS-B
Sun 12:20:52 PM 41.0650 -89.5550 165° South 518 596 33,000  Level FlightAware ADS-B
Sun 12:21:37 PM 40.9640 -89.5170 164° South 516 594 33,000  Level FlightAware ADS-B
Sun 12:22:17 PM 40.8700 -89.4830 165° South 515 593 33,000  Level FlightAware ADS-B
Sun 12:23:02 PM 40.7690 -89.4470 165° South 513 590 33,000  Level FlightAware ADS-B
Sun 12:23:42 PM 40.6770 -89.4150 165° South 513 590 33,000  Level FlightAware ADS-B
Sun 12:24:22 PM 40.5820 -89.3810 165° South 511 588 33,000  Level FlightAware ADS-B
Sun 12:25:07 PM 40.4850 -89.3460 165° South 510 587 33,000  Level FlightAware ADS-B
Sun 12:25:47 PM 40.3920 -89.3130 165° South 509 586 33,000  Level FlightAware ADS-B
Sun 12:26:27 PM 40.3050 -89.2830 165° South 508 585 33,000  Level FlightAware ADS-B
Sun 12:27:22 PM 40.1830 -89.2390 165° South 507 583 33,000  Level FlightAware ADS-B
Sun 12:28:07 PM 40.0750 -89.2020 165° South 507 583 33,000  Level FlightAware ADS-B
Sun 12:28:47 PM 39.9810 -89.1690 165° South 507 583 33,000  Level FlightAware ADS-B
Sun 12:29:32 PM 39.8810 -89.1340 165° South 507 583 33,000  Level FlightAware ADS-B
Sun 12:30:12 PM 39.7860 -89.1010 165° South 506 582 33,000  Level FlightAware ADS-B
Sun 12:30:57 PM 39.6870 -89.0660 165° South 505 581 33,000  Level FlightAware ADS-B
Sun 12:31:37 PM 39.5970 -89.0350 165° South 504 580 33,000  Level FlightAware ADS-B
Sun 12:32:22 PM 39.4930 -89.0000 165° South 504 580 33,000  Level FlightAware ADS-B
Sun 12:33:02 PM 39.4030 -88.9680 165° South 504 580 33,000  Level FlightAware ADS-B
Sun 12:33:42 PM 39.3140 -88.9380 165° South 500 575 33,000  Level FlightAware ADS-B
Sun 12:34:22 PM 39.2270 -88.9080 165° South 497 572 33,000  Level FlightAware ADS-B
Sun 12:35:02 PM 39.1400 -88.8780 165° South 497 572 33,000  Level FlightAware ADS-B
Sun 12:35:42 PM 39.0640 -88.8520 165° South 497 572 33,000  Level FlightAware ADS-B
Sun 12:36:32 PM 38.9370 -88.8090 165° South 484 557 33,000  Level FlightAware ADS-B
Sun 12:37:12 PM 38.8570 -88.7820 165° South 485 558 33,000  Level FlightAware ADS-B
Sun 12:37:57 PM 38.7570 -88.7480 165° South 484 557 33,000  Level FlightAware ADS-B
Sun 12:38:37 PM 38.6760 -88.7210 165° South 483 556 33,000  Level FlightAware ADS-B
Sun 12:39:17 PM 38.5800 -88.6890 165° South 483 556 33,000  Level FlightAware ADS-B
Sun 12:40:02 PM 38.4860 -88.6570 165° South 483 556 33,000  Level FlightAware ADS-B
Sun 12:40:42 PM 38.3980 -88.6280 166° South 487 560 33,000  Level FlightAware ADS-B
Sun 12:41:12 PM 38.3320 -88.6060 165° South 489 563 33,000  Level FlightAware ADS-B
Sun 12:41:52 PM 38.2430 -88.5760 165° South 490 564 33,000  Level FlightAware ADS-B
Sun 12:42:37 PM 38.1450 -88.5440 166° South 489 563 33,000  Level FlightAware ADS-B
Sun 12:43:17 PM 38.0540 -88.5140 165° South 488 562 33,000  Level FlightAware ADS-B
Sun 12:43:57 PM 37.9680 -88.4850 165° South 487 560 33,000  Level FlightAware ADS-B
Sun 12:44:42 PM 37.8710 -88.4530 165° South 487 560 33,000  Level FlightAware ADS-B
Sun 12:45:22 PM 37.7850 -88.4250 166° South 486 559 33,000  Level FlightAware ADS-B
Sun 12:46:02 PM 37.6970 -88.3960 165° South 485 558 33,000  Level FlightAware ADS-B
Sun 12:46:47 PM 37.5970 -88.3630 165° South 483 556 33,000  Level FlightAware ADS-B
Sun 12:47:27 PM 37.5120 -88.3350 165° South 480 552 33,000  Level FlightAware ADS-B
Sun 12:48:12 PM 37.4160 -88.3040 166° South 477 549 33,000  Level FlightAware ADS-B
Sun 12:48:52 PM 37.3310 -88.2760 165° South 480 552 33,000  Level FlightAware ADS-B
Sun 12:49:37 PM 37.2470 -88.2070 147° Southeast 513 590 33,000  Level FlightAware ADS-B
Sun 12:50:12 PM 37.1950 -88.1360 133° Southeast 513 590 33,000  Level FlightAware ADS-B
Sun 12:50:57 PM 37.1160 -88.0270 132° Southeast 514 592 33,000  Level FlightAware ADS-B
Sun 12:51:42 PM 37.0440 -87.9290 133° Southeast 514 592 33,000  Level FlightAware ADS-B
Sun 12:52:17 PM 36.9870 -87.8500 132° Southeast 515 593 33,000  Level FlightAware ADS-B
Sun 12:53:02 PM 36.9220 -87.7620 133° Southeast 516 594 33,000  Level FlightAware ADS-B
Sun 12:53:42 PM 36.8680 -87.6860 132° Southeast 516 594 33,000  Level FlightAware ADS-B
Sun 12:54:22 PM 36.8140 -87.6110 132° Southeast 516 594 33,000  Level FlightAware ADS-B
Sun 12:55:02 PM 36.7600 -87.5360 132° Southeast 516 594 33,000  Level FlightAware ADS-B
Sun 12:55:52 PM 36.6920 -87.4420 132° Southeast 516 594 33,000  Level FlightAware ADS-B
Sun 12:56:32 PM 36.6370 -87.3660 132° Southeast 516 594 33,000  Level FlightAware ADS-B
Sun 12:57:12 PM 36.5830 -87.2910 132° Southeast 516 594 33,000  Level FlightAware ADS-B
Sun 12:57:52 PM 36.5290 -87.2160 132° Southeast 516 594 33,000  Level FlightAware ADS-B
Sun 12:58:42 PM 36.4610 -87.1220 132° Southeast 516 594 33,000  Level FlightAware ADS-B
Sun 12:59:22 PM 36.4070 -87.0480 132° Southeast 516 594 33,000  Level FlightAware ADS-B
Sun 01:00:02 PM 36.3520 -86.9730 132° Southeast 516 594 33,000  Level FlightAware ADS-B
Sun 01:00:42 PM 36.2980 -86.8980 132° Southeast 516 594 33,000  Level FlightAware ADS-B
Sun 01:01:22 PM 36.2440 -86.8230 132° Southeast 516 594 33,000  Level FlightAware ADS-B
Sun 01:02:12 PM 36.1760 -86.7290 132° Southeast 516 594 33,000  Level FlightAware ADS-B
Sun 01:04:18 PM 35.5814 -86.7134 179° South 498 573 33,000  Level FlightAware ADS-B
Sun 01:04:52 PM 35.5156 -86.6636 148° Southeast 498 573 33,000  Level FlightAware ADS-B
Sun 01:05:23 PM 35.4543 -86.6171 148° Southeast 497 572 33,000  Level FlightAware ADS-B
Sun 01:05:54 PM 35.3948 -86.5724 149° Southeast 496 571 33,000  Level FlightAware ADS-B
Sun 01:06:32 PM 35.3201 -86.5160 148° Southeast 494 568 33,000  Level FlightAware ADS-B
Sun 01:08:55 PM 35.0421 -86.3076 148° Southeast 489 563 33,000  Level FlightAware ADS-B
Sun 01:09:28 PM 34.9796 -86.2611 149° Southeast 488 562 33,000  Level FlightAware ADS-B
Sun 01:09:59 PM 34.9198 -86.2166 149° Southeast 489 563 33,000  Level FlightAware ADS-B
Sun 01:10:29 PM 34.8613 -86.1730 149° Southeast 490 564 33,000  Level FlightAware ADS-B
Sun 01:11:02 PM 34.7975 -86.1258 149° Southeast 489 563 33,000  Level FlightAware ADS-B
Sun 01:11:38 PM 34.7280 -86.0744 149° Southeast 492 566 33,000  Level FlightAware ADS-B
Sun 01:12:09 PM 34.6669 -86.0293 149° Southeast 495 570 33,000  Level FlightAware ADS-B
Sun 01:12:40 PM 34.6056 -85.9842 149° Southeast 497 572 33,000  Level FlightAware ADS-B
Sun 01:13:10 PM 34.5463 -85.9404 149° Southeast 499 574 33,000  Level FlightAware ADS-B
Sun 01:13:41 PM 34.4846 -85.8951 149° Southeast 501 577 33,000  Level FlightAware ADS-B
Sun 01:14:13 PM 34.4218 -85.8492 149° Southeast 502 578 33,000  Level FlightAware ADS-B
Sun 01:14:43 PM 34.3613 -85.8048 149° Southeast 504 580 33,000  Level FlightAware ADS-B
Sun 01:15:13 PM 34.3011 -85.7608 149° Southeast 505 581 33,000  Level FlightAware ADS-B
Sun 01:15:46 PM 34.2368 -85.7139 149° Southeast 507 583 33,000  Level FlightAware ADS-B
Sun 01:16:31 PM 34.1464 -85.6480 149° Southeast 505 581 33,000  Level FlightAware ADS-B
Sun 01:17:05 PM 34.0772 -85.5978 149° Southeast 503 579 33,000  Level FlightAware ADS-B
Sun 01:17:51 PM 33.9851 -85.5311 149° Southeast 502 578 33,000  Level FlightAware ADS-B
Sun 01:18:23 PM 33.9223 -85.4857 149° Southeast 499 574 33,000  Level FlightAware ADS-B
Sun 01:18:53 PM 33.8627 -85.4427 149° Southeast 498 573 33,000  Level FlightAware ADS-B
Sun 01:20:02 PM 33.7440 -85.3570 149° Southeast 489 563 33,000  Level FlightAware ADS-B
Sun 01:20:37 PM 33.6568 -85.2948 149° Southeast 497 572 33,000  Level FlightAware ADS-B
Sun 01:21:08 PM 33.5963 -85.2515 149° Southeast 495 570 33,000  Level FlightAware ADS-B
Sun 01:21:40 PM 33.5340 -85.2069 149° Southeast 495 570 33,000  Level FlightAware ADS-B
Sun 01:22:17 PM 33.4680 -85.1600 149° Southeast 489 563 33,000  Level FlightAware ADS-B
Sun 01:22:57 PM 33.3880 -85.1030 149° Southeast 490 564 33,000  Level FlightAware ADS-B
Sun 01:23:42 PM 33.3010 -85.0410 149° Southeast 493 567 33,000  Level FlightAware ADS-B
Sun 01:24:32 PM 33.2040 -84.9720 149° Southeast 503 579 33,000  Level FlightAware ADS-B
Sun 01:25:17 PM 33.1100 -84.9060 150° Southeast 503 579 33,000  Level FlightAware ADS-B
Sun 01:25:57 PM 33.0290 -84.8490 149° Southeast 509 586 33,000  Level FlightAware ADS-B
Sun 01:26:42 PM 32.9320 -84.7800 149° Southeast 508 585 33,000  Level FlightAware ADS-B
Sun 01:27:17 PM 32.8690 -84.7360 150° Southeast 507 583 33,000  Level FlightAware ADS-B
Sun 01:28:02 PM 32.7900 -84.6800 149° Southeast 507 583 33,000  Level FlightAware ADS-B
Sun 01:28:42 PM 32.7220 -84.6310 149° Southeast 507 583 33,000  Level FlightAware ADS-B
Sun 01:29:27 PM 32.5980 -84.5470 150° Southeast 506 582 33,000  Level FlightAware ADS-B
Sun 01:30:12 PM 32.5110 -84.4860 149° Southeast 504 580 33,000  Level FlightAware ADS-B
Sun 01:30:52 PM 32.4440 -84.4390 149° Southeast 504 580 33,000  Level FlightAware ADS-B
Sun 01:31:32 PM 32.3760 -84.3910 149° Southeast 504 580 33,000  Level FlightAware ADS-B
Sun 01:32:12 PM 32.3080 -84.3430 149° Southeast 504 580 33,000  Level FlightAware ADS-B
Sun 01:33:02 PM 32.2230 -84.2820 149° Southeast 504 580 33,000  Level FlightAware ADS-B
Sun 01:33:32 PM 32.1720 -84.2460 149° Southeast 504 580 33,000  Level FlightAware ADS-B
Sun 01:34:22 PM 32.0870 -84.1860 149° Southeast 504 580 33,000  Level FlightAware ADS-B
Sun 01:35:02 PM 32.0190 -84.1380 149° Southeast 504 580 33,000  Level FlightAware ADS-B
Sun 01:35:42 PM 31.9510 -84.0890 149° Southeast 504 580 33,000  Level FlightAware ADS-B
Sun 01:36:22 PM 31.8830 -84.0410 149° Southeast 504 580 33,000  Level FlightAware ADS-B
Sun 01:37:12 PM 31.7990 -83.9810 149° Southeast 504 580 33,000  Level FlightAware ADS-B
Sun 01:37:52 PM 31.7310 -83.9330 149° Southeast 504 580 33,000  Level FlightAware ADS-B
Sun 01:38:32 PM 31.6630 -83.8850 149° Southeast 504 580 33,000  Level FlightAware ADS-B
Sun 01:39:12 PM 31.5950 -83.8370 149° Southeast 504 580 33,000  Level FlightAware ADS-B
Sun 01:40:02 PM 31.5100 -83.7770 149° Southeast 504 580 33,000  Level FlightAware ADS-B
Sun 01:41:15 PM 31.2253 -83.5436 149° Southeast 510 587 33,000  Level Jacksonville Center
Sun 01:42:15 PM 31.1047 -83.4556 148° Southeast 510 587 33,000  Level Jacksonville Center
Sun 01:43:15 PM 30.9858 -83.3700 148° Southeast 510 587 33,000 -50 Level Jacksonville Center
Sun 01:44:15 PM 30.8653 -83.2847 149° Southeast 510 587 32,900 -1,250 Descending Jacksonville Center
Sun 01:45:15 PM 30.7483 -83.1972 147° Southeast 510 587 30,500 -2,700 Descending Jacksonville Center
Sun 01:46:15 PM 30.6297 -83.1097 148° Southeast 510 587 27,500 -1,800 Descending Jacksonville Center
Sun 01:47:15 PM 30.5150 -83.0058 142° Southeast 515 593 26,900 -425 Descending Jacksonville Center
Sun 01:53:47 PM 29.7380 -82.3690 142° Southeast 467 537 24,300 -403 Descending FlightAware ADS-B
Sun 01:54:27 PM 29.6660 -82.3340 157° South 463 533 24,000 -225 Descending FlightAware ADS-B
Sun 01:55:07 PM 29.5980 -82.3010 157° South 463 533 24,000  Level FlightAware ADS-B
Sun 01:55:47 PM 29.5310 -82.2680 157° South 463 533 24,000  Level FlightAware ADS-B
Sun 01:56:27 PM 29.4640 -82.2360 157° South 463 533 24,000  Level FlightAware ADS-B
Sun 01:57:07 PM 29.3970 -82.2030 157° South 463 533 24,000 -4,667 Level FlightAware ADS-B
Sun 01:57:57 PM 29.2660 -82.1440 159° South 407 468 17,000 -5,400 Descending FlightAware ADS-B
Sun 01:58:37 PM 29.1990 -82.1120 157° South 391 450 15,900 -1,835 Descending FlightAware ADS-B
Sun 01:59:22 PM 29.1220 -82.0750 157° South 380 437 14,400 -1,350 Descending FlightAware ADS-B
Sun 01:59:57 PM 29.0720 -82.0510 157° South 378 435 14,100 -1,200 Descending FlightAware ADS-B
Sun 02:01:02 PM 28.9650 -82.0000 157° South 401 461 12,400 -2,000 Descending FlightAware ADS-B
Sun 02:01:27 PM 28.9340 -81.9430 122° Southeast 379 436 11,100 -1,200 Descending FlightAware ADS-B
Sun 02:02:22 PM 28.8850 -81.8600 124° Southeast 359 413 10,800 -491 Descending FlightAware ADS-B
Sun 02:03:17 PM 28.8390 -81.7820 124° Southeast 320 368 10,200 -991 Descending FlightAware ADS-B
Sun 02:03:37 PM 28.8240 -81.7550 122° Southeast 9,300 -1,300 Descending FlightAware ADS-B
Sun 02:04:17 PM 28.7940 -81.7000 122° Southeast 313 360 8,900 -480 Descending FlightAware ADS-B
Sun 02:04:27 PM 28.7870 -81.6880 124° Southeast 313 360 8,900  Level FlightAware ADS-B
Sun 02:04:52 PM 28.7670 -81.6520 122° Southeast 309 356 8,900  Level FlightAware ADS-B
Sun 02:05:27 PM 28.7390 -81.6020 123° Southeast 307 353 8,900  Level FlightAware ADS-B
Sun 02:05:52 PM 28.7170 -81.5680 126° Southeast 300 345 8,900  Level FlightAware ADS-B
Sun 02:06:07 PM 28.7070 -81.5480 120° Southeast 290 334 8,900 -600 Level FlightAware ADS-B
Sun 02:06:22 PM 28.7020 -81.5290 107° East 284 327 8,600 -1,800 Descending FlightAware ADS-B
Sun 02:06:47 PM 28.6940 -81.4900 103° East 287 330 7,700 -2,182 Descending FlightAware ADS-B
Sun 02:07:17 PM 28.6850 -81.4450 103° East 280 322 6,600 -2,000 Descending FlightAware ADS-B
Sun 02:07:47 PM 28.6770 -81.4050 103° East 276 318 5,700 -1,964 Descending FlightAware ADS-B
Sun 02:08:12 PM 28.6690 -81.3670 103° East 272 313 4,800 -1,964 Descending FlightAware ADS-B
Sun 02:08:42 PM 28.6590 -81.3300 107° East 259 298 3,900 -1,855 Descending FlightAware ADS-B
Sun 02:09:07 PM 28.6370 -81.3030 133° Southeast 256 295 3,100 -1,350 Descending FlightAware ADS-B
Sun 02:09:22 PM 28.6230 -81.2970 159° South 239 275 3,000 -171 Descending FlightAware ADS-B
Sun 02:09:42 PM 28.6000 -81.3010 189° South 211 243 3,000 -109 Level FlightAware ADS-B
Sun 02:10:17 PM 28.5700 -81.3000 178° South 194 223 2,900 -360 Descending FlightAware ADS-B
Sun 02:10:32 PM 28.5540 -81.3000 180° South 198 228 2,700 -933 Descending FlightAware ADS-B
Sun 02:11:02 PM 28.5250 -81.3000 180° South 194 223 2,200 -982 Descending FlightAware ADS-B
Sun 02:11:27 PM 28.5040 -81.2990 178° South 194 223 1,800 -982 Descending FlightAware ADS-B
Sun 02:11:57 PM 28.4770 -81.2990 180° South 162 186 1,300 -933 Descending FlightAware ADS-B
Sun 02:12:12 PM 28.4660 -81.2990 180° South 148 170 1,100 -750 Descending FlightAware ADS-B
Sun 02:12:37 PM 28.4490 -81.2990 180° South 150 173 800 -750 Descending FlightAware ADS-B
Sun 02:12:52 PM 28.4380 -81.2980 175° South 144 166 600 -750 Descending FlightAware ADS-B
Sun 02:13:17 PM 28.4210 -81.2980 180° South 145 167 300 -750 Descending FlightAware ADS-B
Sun 02:13:32 PM 28.4110 -81.2980 180° South 147 169 100 -800 Descending FlightAware ADS-B

Login

Don't have an account? Register now (free) for customized features, flight alerts, and more!